Roosendaal, Netherlands
Current Conditions -  °F | °C
As of 2:25 AM on Wednesday 22 Oct 2014 (Local Time) from EHWO Reporting Station
Moderate Rain Moderate Rain  
Wind Chill: 40°   Ceiling: 3200
Heat Index: 46°   Visibility: 6mi
Dew Point: 43°   Wind: 15mph
Humidity: 87%   Direction: 310°NW
Pressure: 29.94"   Gusts: 28mph
Location:  51.53°N, 4.47°E
Report Text: EHWO 220025Z AUTO 31013G24KT 9999 RA FEW015TCU SCT028 BKN032 08/06 Q1014 BLU
Loading
Personal Weather Stations






























Interactive Weather Map
Tropical Storm Tracking
New forecast layout! Learn more

10-Day Weather Forecast

Advertisements
Track Severe Weather on mobile